Time;durP1;ratioP1;P1;durP2;ratioP2;P2;SDS_P1;SDS_P2;PMS_P1;PMS_P2;Temp;Humidity;BMP_temperature;BMP_pressure;BME280_temperature;BME280_humidity;BME280_pressure;Samples;Min_cycle;Max_cycle;Signal;HPM_P1;HPM_P2
2021/04/01 00:02:28;;;;;;;4.90;3.70;;;;;;;22.88;36.23;95277.47;5030636;28;20080;-75
2021/04/01 00:04:54;;;;;;;4.90;3.60;;;;;;;22.88;36.31;95270.53;5031249;28;20026;-75
2021/04/01 00:07:20;;;;;;;5.47;3.65;;;;;;;22.84;36.28;95264.59;5031254;28;20541;-75
2021/04/01 00:09:48;;;;;;;3.83;3.42;;;;;;;22.83;36.23;95255.69;5031452;28;20035;-75
2021/04/01 00:12:14;;;;;;;5.45;3.70;;;;;;;22.84;36.28;95256.44;5013602;28;20120;-75
2021/04/01 00:14:39;;;;;;;4.82;3.75;;;;;;;22.14;36.21;95158.13;5031264;28;20036;-75
2021/04/01 00:17:05;;;;;;;4.50;3.60;;;;;;;22.78;36.32;95244.81;5029899;28;20559;-74
2021/04/01 00:19:31;;;;;;;5.35;3.88;;;;;;;22.75;36.13;95234.94;5013463;28;20124;-75
2021/04/01 00:21:56;;;;;;;6.32;3.95;;;;;;;22.79;36.37;95235.41;5031078;28;20021;-76
2021/04/01 00:24:22;;;;;;;4.30;3.28;;;;;;;22.77;36.49;95237.91;5030932;28;20517;-75
2021/04/01 00:26:47;;;;;;;4.38;3.45;;;;;;;22.67;36.28;95223.06;5029851;28;20018;-76
2021/04/01 00:29:13;;;;;;;4.93;3.47;;;;;;;22.75;36.70;95230.25;5030936;28;20053;-75
2021/04/01 00:31:38;;;;;;;4.55;3.42;;;;;;;22.74;36.38;95233.47;5030848;28;20067;-75
2021/04/01 00:34:04;;;;;;;4.78;3.60;;;;;;;22.66;36.40;95221.59;5030710;28;20036;-75
2021/04/01 00:36:29;;;;;;;5.60;4.07;;;;;;;22.73;36.48;95231.97;5030853;28;20021;-75
2021/04/01 00:38:55;;;;;;;5.25;3.83;;;;;;;22.72;36.33;95225.03;5030692;28;20045;-75
2021/04/01 00:41:20;;;;;;;5.10;4.10;;;;;;;22.66;36.57;95210.69;5030434;28;20033;-75
2021/04/01 00:43:46;;;;;;;5.53;3.50;;;;;;;22.70;36.38;95206.47;5030727;28;20034;-76
2021/04/01 00:46:11;;;;;;;5.80;3.72;;;;;;;22.69;36.43;95209.69;5030386;28;20034;-75
2021/04/01 00:48:37;;;;;;;5.45;4.35;;;;;;;22.60;36.59;95191.69;5046202;28;20021;-75
2021/04/01 00:51:02;;;;;;;4.93;3.65;;;;;;;22.67;36.39;95206.75;5030738;28;20029;-75
2021/04/01 00:53:28;;;;;;;7.55;4.05;;;;;;;22.68;36.35;95200.06;5030959;28;20079;-75
2021/04/01 00:55:53;;;;;;;8.40;5.38;;;;;;;22.64;36.44;95191.41;5028960;28;20505;-75
2021/04/01 00:58:19;;;;;;;90.05;50.78;;;;;;;22.31;36.64;95142.53;5047481;28;20033;-75
2021/04/01 01:00:46;;;;;;;5.20;3.65;;;;;;;22.65;36.46;95193.63;5049274;28;20037;-75
2021/04/01 01:03:12;;;;;;;5.55;3.63;;;;;;;22.64;36.61;95192.13;5050347;28;20112;-74
2021/04/01 01:05:37;;;;;;;4.78;3.70;;;;;;;22.63;36.69;95185.22;5065771;28;20032;-75
2021/04/01 01:08:03;;;;;;;5.70;4.35;;;;;;;22.51;36.47;95163.97;5050496;28;20029;-74
2021/04/01 01:10:30;;;;;;;5.90;4.05;;;;;;;22.15;36.64;95118.81;5049829;28;20033;-74
2021/04/01 01:12:59;;;;;;;4.80;3.53;;;;;;;22.22;36.72;95123.75;5037990;28;20172;-75
2021/04/01 01:15:24;;;;;;;4.20;3.40;;;;;;;22.60;36.57;95183.50;5028916;28;20052;-75
2021/04/01 01:17:51;;;;;;;5.47;3.85;;;;;;;22.59;36.76;95178.56;5028773;28;20422;-75
2021/04/01 01:20:16;;;;;;;4.95;4.05;;;;;;;22.59;36.74;95178.56;5030397;28;20093;-75
2021/04/01 01:22:42;;;;;;;6.22;3.90;;;;;;;22.23;36.84;95130.69;5029982;28;20029;-75
2021/04/01 01:25:10;;;;;;;5.43;3.95;;;;;;;22.57;36.78;95175.59;5011725;28;20476;-75
2021/04/01 01:27:37;;;;;;;5.82;4.15;;;;;;;22.55;36.73;95172.63;5010207;28;20581;-75
2021/04/01 01:30:08;;;;;;;4.97;3.75;;;;;;;22.27;36.53;95117.56;5010164;28;20049;-76
2021/04/01 01:32:38;;;;;;;5.38;3.83;;;;;;;22.55;36.97;95161.75;5008842;28;20026;-75
2021/04/01 01:35:22;;;;;;;;;;;;;;;22.53;36.87;95150.63;5010443;28;20505;-75
2021/04/01 01:37:51;;;;;;;6.15;3.95;;;;;;;22.53;36.70;95137.03;5010052;28;19913;-75
2021/04/01 01:40:19;;;;;;;5.88;4.47;;;;;;;22.45;36.82;95125.16;5018443;28;20039;-75
2021/04/01 01:42:44;;;;;;;5.68;3.70;;;;;;;22.49;36.61;95141.97;5049312;28;20103;-75
2021/04/01 01:45:10;;;;;;;5.10;3.70;;;;;;;22.50;36.73;95138.03;5048387;28;20040;-75
2021/04/01 01:47:35;;;;;;;5.50;3.97;;;;;;;22.46;36.73;95126.66;5049662;28;20079;-75
2021/04/01 01:50:03;;;;;;;5.90;3.80;;;;;;;22.50;36.76;95138.03;5037164;28;20041;-75
2021/04/01 01:52:28;;;;;;;6.13;4.25;;;;;;;22.48;36.91;95135.78;5029346;28;20468;-75
2021/04/01 01:54:54;;;;;;;6.93;4.18;;;;;;;22.47;36.63;95128.13;5029439;28;20017;-75
2021/04/01 01:57:19;;;;;;;6.00;3.70;;;;;;;22.48;36.76;95129.59;5044470;28;20025;-75
2021/04/01 01:59:45;;;;;;;5.80;4.20;;;;;;;22.46;36.69;95127.38;5044442;28;20034;-76
2021/04/01 02:02:10;;;;;;;6.40;4.25;;;;;;;22.46;36.66;95099.44;5044522;28;20495;-75
2021/04/01 02:04:36;;;;;;;6.05;4.30;;;;;;;22.33;36.86;95080.22;5029202;28;20505;-75
2021/04/01 02:07:01;;;;;;;5.50;4.10;;;;;;;22.38;36.86;95081.44;5028969;28;20018;-74
2021/04/01 02:09:27;;;;;;;5.25;3.90;;;;;;;22.38;36.81;95076.72;5029283;28;20022;-75
2021/04/01 02:11:52;;;;;;;5.70;4.07;;;;;;;22.43;36.98;95105.88;5044550;28;20021;-75
2021/04/01 02:14:18;;;;;;;5.47;3.92;;;;;;;22.44;37.02;95107.38;5029310;28;20027;-75
2021/04/01 02:16:43;;;;;;;6.53;4.13;;;;;;;22.42;36.80;95107.13;5029016;28;20046;-75
2021/04/01 02:19:08;;;;;;;6.00;4.35;;;;;;;22.42;36.88;95115.31;5029000;28;20119;-75
2021/04/01 02:21:36;;;;;;;5.70;4.75;;;;;;;22.41;36.69;95108.38;5028665;28;20014;-75
2021/04/01 02:24:01;;;;;;;6.05;4.47;;;;;;;22.41;36.85;95110.34;5027939;28;20033;-75
2021/04/01 02:26:27;;;;;;;5.15;3.88;;;;;;;22.40;36.89;95117.75;5027030;28;20457;-74
2021/04/01 02:28:53;;;;;;;6.32;4.00;;;;;;;22.10;36.69;95084.19;5042963;28;20024;-75
2021/04/01 02:31:21;;;;;;;7.50;4.70;;;;;;;22.07;36.98;95079.75;5048565;28;20419;-74
2021/04/01 02:33:47;;;;;;;5.70;4.10;;;;;;;22.40;37.00;95127.91;5063690;28;20020;-74
2021/04/01 02:36:13;;;;;;;6.32;4.43;;;;;;;22.04;36.75;95086.19;5044353;28;20102;-75
2021/04/01 02:38:38;;;;;;;6.53;4.28;;;;;;;22.31;36.97;95120.75;5027684;28;20022;-75
2021/04/01 02:41:04;;;;;;;6.30;4.55;;;;;;;22.03;36.85;95089.41;5017003;28;20026;-75
2021/04/01 02:45:57;;;;;;;6.65;4.70;;;;;;;22.37;36.85;95151.41;5008185;28;20517;-75
2021/04/01 02:48:23;;;;;;;6.13;4.20;;;;;;;22.37;36.82;95151.41;5008875;28;20022;-75
2021/04/01 02:50:48;;;;;;;6.38;4.28;;;;;;;22.35;36.95;95153.91;5008847;28;20053;-75
2021/04/01 02:53:14;;;;;;;6.32;4.00;;;;;;;22.04;37.11;95107.94;5009314;28;20095;-75
2021/04/01 02:55:39;;;;;;;6.25;4.57;;;;;;;22.14;36.73;95117.31;5009356;28;20485;-75
2021/04/01 02:58:05;;;;;;;6.53;4.20;;;;;;;22.35;36.96;95156.63;5009216;28;20745;-75
2021/04/01 03:00:32;;;;;;;7.30;4.13;;;;;;;22.34;36.91;95155.13;5008851;28;20042;-75
2021/04/01 03:06:00;;;;;;;6.68;4.25;;;;;;;22.12;37.37;95127.97;5006459;28;20034;-75
2021/04/01 03:08:25;;;;;;;7.40;4.70;;;;;;;22.33;36.83;95156.38;5003560;28;20034;-75
2021/04/01 03:10:51;;;;;;;6.07;4.18;;;;;;;22.31;37.03;95158.13;5018022;28;20036;-75
2021/04/01 03:13:16;;;;;;;6.45;4.43;;;;;;;22.32;36.90;95160.34;5028265;28;20029;-75
2021/04/01 03:15:42;;;;;;;6.93;4.65;;;;;;;22.31;36.84;95153.41;5028270;28;20056;-75
2021/04/01 03:18:07;;;;;;;6.85;4.70;;;;;;;22.28;36.89;95143.50;5043646;28;20495;-75
2021/04/01 03:20:33;;;;;;;7.22;4.78;;;;;;;22.30;36.86;95143.78;5028529;28;20115;-75
2021/04/01 03:22:58;;;;;;;6.47;5.00;;;;;;;22.29;37.02;95139.56;5043671;28;20494;-75
2021/04/01 03:25:23;;;;;;;6.80;4.60;;;;;;;22.29;37.10;95133.41;5028173;28;20028;-75
2021/04/01 03:27:49;;;;;;;6.47;4.40;;;;;;;22.28;36.97;95129.91;5028274;28;20037;-74
2021/04/01 03:30:15;;;;;;;7.07;4.70;;;;;;;22.28;36.97;95119.03;5028469;28;20418;-75
2021/04/01 03:32:42;;;;;;;6.43;4.28;;;;;;;22.28;36.97;95121.75;5043680;28;20024;-75
2021/04/01 03:35:09;;;;;;;6.40;4.28;;;;;;;22.28;37.19;95126.47;5028230;28;20048;-75
2021/04/01 03:37:34;;;;;;;7.43;4.32;;;;;;;22.26;36.71;95113.34;5031566;28;20030;-75
2021/04/01 03:40:00;;;;;;;6.70;4.43;;;;;;;22.26;37.04;95113.34;5047013;28;20022;-74
2021/04/01 03:42:26;;;;;;;6.32;4.30;;;;;;;22.26;37.20;95118.81;5029234;28;20048;-75
2021/04/01 03:44:53;;;;;;;5.97;4.35;;;;;;;22.25;37.02;95122.75;5030476;28;20025;-75
2021/04/01 03:47:18;;;;;;;7.22;4.47;;;;;;;21.92;36.97;95071.13;5032190;28;20025;-75
2021/04/01 03:49:44;;;;;;;5.63;4.32;;;;;;;22.24;37.10;95121.28;5031469;28;20017;-75
2021/04/01 03:52:09;;;;;;;6.28;4.35;;;;;;;22.19;36.98;95118.53;5030746;28;20037;-75
2021/04/01 03:54:35;;;;;;;7.40;5.05;;;;;;;22.17;36.96;95121.75;5030749;28;20560;-75
2021/04/01 03:57:01;;;;;;;7.05;4.85;;;;;;;22.24;36.96;95126.72;5030298;28;20029;-74
2021/04/01 03:59:41;;;;;;;6.97;5.18;;;;;;;22.23;37.15;95125.25;5031462;28;20029;-75
2021/04/01 04:07:30;;;;;;;6.50;4.65;;;;;;;22.22;37.15;95123.00;5010136;28;20065;-74
2021/04/01 04:17:33;;;;;;;6.82;5.00;;;;;;;22.11;37.20;95126.47;5030839;28;20032;-75
2021/04/01 04:19:59;;;;;;;7.70;5.10;;;;;;;22.10;37.17;95122.25;5013450;28;20414;-75
2021/04/01 04:22:25;;;;;;;7.85;5.65;;;;;;;22.18;37.08;95128.69;5046386;28;20051;-75
2021/04/01 04:24:50;;;;;;;8.80;5.57;;;;;;;22.18;37.05;95128.69;5031221;28;20025;-75
2021/04/01 04:27:37;;;;;;;12.98;9.88;;;;;;;22.18;37.32;95134.13;5046384;28;20461;-74
2021/04/01 04:30:02;;;;;;;29.98;26.80;;;;;;;22.15;37.05;95135.13;5044079;28;20045;-75
2021/04/01 04:32:28;;;;;;;35.03;31.23;;;;;;;22.18;37.10;95142.28;5030980;28;20068;-75
2021/04/01 04:34:53;;;;;;;12.55;11.32;;;;;;;22.17;36.99;95143.53;5030924;28;20045;-75
2021/04/01 04:37:19;;;;;;;19.80;17.90;;;;;;;22.17;37.20;95143.53;5030616;28;20044;-74
2021/04/01 04:39:45;;;;;;;13.85;12.45;;;;;;;22.17;37.11;95143.53;5030876;28;20560;-75
2021/04/01 04:42:10;;;;;;;18.85;17.13;;;;;;;22.17;37.05;95151.69;5046491;28;20119;-75
2021/04/01 04:44:36;;;;;;;82.40;62.92;;;;;;;22.15;37.12;95146.00;5040661;28;20037;-75
2021/04/01 04:47:01;;;;;;;83.55;61.50;;;;;;;21.93;37.05;95124.28;5050100;28;20124;-76
2021/04/01 04:49:27;;;;;;;158.70;96.68;;;;;;;21.82;36.98;95109.94;5050683;28;20031;-75
2021/04/01 04:51:53;;;;;;;14.00;12.68;;;;;;;21.51;37.19;95068.75;5036033;28;20033;-75
2021/04/01 04:54:18;;;;;;;15.70;14.30;;;;;;;22.18;37.32;95161.34;5040954;28;20079;-77
2021/04/01 04:56:45;;;;;;;35.92;32.38;;;;;;;22.22;37.15;95172.72;5029165;28;20388;-71
2021/04/01 04:59:33;;;;;;;99.38;73.05;;;;;;;21.89;37.49;95119.59;5026766;28;20502;-76
2021/04/01 05:04:47;;;;;;;10.32;9.25;;;;;;;22.33;37.36;95180.88;5030150;28;20032;-73
2021/04/01 05:07:13;;;;;;;13.85;12.65;;;;;;;22.36;37.64;95170.94;5038121;28;20024;-76
2021/04/01 05:09:38;;;;;;;95.15;72.50;;;;;;;22.43;37.35;95182.06;5036946;28;20028;-77
2021/04/01 05:12:05;;;;;;;111.80;77.32;;;;;;;22.49;37.25;95190.94;5045104;28;20037;-77
2021/04/01 05:14:30;;;;;;;27.48;25.15;;;;;;;22.58;37.16;95182.53;5036870;28;20067;-78
2021/04/01 05:16:56;;;;;;;32.78;30.08;;;;;;;22.54;37.05;95171.13;5049278;28;20025;-75
2021/04/01 05:19:22;;;;;;;37.95;34.33;;;;;;;22.26;37.10;95124.25;5055293;28;20033;-78
2021/04/01 05:22:23;;;;;;;138.32;92.68;;;;;;;22.85;37.26;95189.84;4999153;28;20025;-75
2021/04/01 05:24:40;;;;;;;104.95;72.72;;;;;;;22.94;36.99;95185.63;5030750;28;20101;-78
2021/04/01 05:30:02;;;;;;;5.53;3.92;;;;;;;22.86;36.68;95142.31;5024414;28;20041;-75
2021/04/01 05:32:30;;;;;;;6.78;4.60;;;;;;;23.28;36.11;95184.22;5030382;28;20021;-75
2021/04/01 05:34:56;;;;;;;9.45;5.60;;;;;;;23.26;36.07;95178.53;5026144;28;20112;-74
2021/04/01 05:37:25;;;;;;;8.43;4.70;;;;;;;23.15;35.82;95145.91;5013045;28;20465;-75
2021/04/01 05:39:51;;;;;;;18.27;16.40;;;;;;;23.58;34.65;95185.75;5044543;28;20024;-76
2021/04/01 05:42:22;;;;;;;270.05;164.30;;;;;;;23.36;35.10;95141.53;5019741;28;20482;-75
2021/04/01 05:44:51;;;;;;;181.75;107.60;;;;;;;23.78;35.11;95187.38;5030023;28;20039;-72
2021/04/01 06:05:52;;;;;;;229.13;132.65;;;;;;;24.61;33.98;95207.97;5029652;28;20425;-74
2021/04/01 06:08:23;;;;;;;225.13;131.10;;;;;;;24.70;34.08;95211.09;5032448;28;20029;-74
2021/04/01 06:10:50;;;;;;;222.82;123.80;;;;;;;24.49;33.63;95169.13;5018871;28;20395;-73
2021/04/01 06:13:17;;;;;;;228.80;128.82;;;;;;;24.79;33.84;95212.75;5029391;28;20035;-79
2021/04/01 06:15:47;;;;;;;132.35;82.43;;;;;;;24.96;33.73;95211.28;5032805;28;20051;-77
2021/04/01 06:18:14;;;;;;;201.25;114.40;;;;;;;24.62;33.33;95157.56;5028760;28;20137;-76
2021/04/01 06:20:42;;;;;;;127.95;85.22;;;;;;;25.08;33.57;95210.69;5016198;28;20458;-75
2021/04/01 06:23:08;;;;;;;200.43;114.88;;;;;;;25.15;33.27;95212.81;5049484;28;20033;-74
2021/04/01 06:25:37;;;;;;;233.02;127.50;;;;;;;25.17;33.20;95209.56;5044151;28;20029;-76
2021/04/01 06:28:06;;;;;;;184.57;107.80;;;;;;;25.29;32.99;95217.13;5017964;28;20593;-83
2021/04/01 06:30:47;;;;;;;193.38;113.25;;;;;;;25.32;33.00;95216.09;5019371;28;20296;-71
2021/04/01 06:33:13;;;;;;;281.90;165.00;;;;;;;25.41;33.03;95218.44;5027896;28;20029;-72
2021/04/01 06:35:53;;;;;;;249.23;132.38;;;;;;;24.84;32.30;95136.94;5029107;28;20025;-75
2021/04/01 06:38:20;;;;;;;366.05;197.73;;;;;;;25.53;32.55;95226.00;5027135;28;20496;-74
2021/04/01 06:40:58;;;;;;;444.35;261.63;;;;;;;25.58;32.74;95216.25;5031450;28;20029;-73
2021/04/01 06:43:48;;;;;;;436.70;253.63;;;;;;;25.64;32.23;95219.63;5028055;28;20083;-73
2021/04/01 06:46:17;;;;;;;;;;;;;;;25.71;32.54;95230.00;5017916;28;20029;-75
2021/04/01 06:51:25;;;;;;;440.15;255.18;;;;;;;25.79;32.19;95226.88;5029538;28;20026;-73
2021/04/01 06:54:15;;;;;;;428.75;242.43;;;;;;;25.85;32.08;95224.06;5027494;28;20026;-71
2021/04/01 06:59:55;;;;;;;541.78;348.10;;;;;;;25.93;31.95;95231.16;5015141;28;20030;-75
2021/04/01 07:02:31;;;;;;;730.58;587.97;;;;;;;25.62;31.85;95167.44;5031138;28;20095;-74
2021/04/01 07:04:59;;;;;;;578.88;391.30;;;;;;;25.60;31.87;95154.28;5026472;28;20083;-76
2021/04/01 07:07:25;;;;;;;639.00;475.77;;;;;;;26.00;31.74;95219.59;5035743;28;20109;-68
2021/04/01 07:10:30;;;;;;;649.95;467.85;;;;;;;26.01;31.88;95229.28;5026700;28;20021;-69
2021/04/01 07:12:45;;;;;;;991.25;867.80;;;;;;;26.00;31.76;95230.53;5042670;28;20048;-69
2021/04/01 07:15:24;;;;;;;833.75;721.75;;;;;;;25.99;31.85;95226.34;4815866;28;20059;-69
2021/04/01 07:17:57;;;;;;;511.80;376.25;;;;;;;25.59;31.71;95190.34;4907317;28;20061;-69
2021/04/01 07:20:40;;;;;;;1156.28;889.40;;;;;;;25.91;31.73;95232.94;5011872;28;20037;-68
2021/04/01 07:44:51;;;;;;;41.88;37.55;;;;;;;25.39;32.28;95245.56;5011270;28;20045;-68
2021/04/01 07:47:28;;;;;;;35.13;32.00;;;;;;;25.31;32.38;95236.50;5018110;28;20037;-68
2021/04/01 07:49:55;;;;;;;27.52;25.38;;;;;;;25.20;32.97;95236.63;5026559;28;20089;-68
2021/04/01 07:52:25;;;;;;;347.05;187.57;;;;;;;25.21;32.85;95249.03;5013041;28;20118;-68
2021/04/01 08:00:47;;;;;;;41.75;37.97;;;;;;;25.05;33.10;95247.25;4996304;28;20030;-68
2021/04/01 08:03:02;;;;;;;10.30;8.27;;;;;;;25.00;33.21;95245.31;5007136;28;20503;-69
2021/04/01 08:05:33;;;;;;;7.45;4.90;;;;;;;24.71;33.07;95211.84;5012998;28;20410;-68
2021/04/01 08:08:05;;;;;;;7.38;4.97;;;;;;;24.92;33.08;95244.38;5009463;28;20418;-69
2021/04/01 08:10:37;;;;;;;58.30;45.35;;;;;;;24.56;32.97;95195.13;5015413;28;20040;-68
2021/04/01 08:13:09;;;;;;;49.25;44.47;;;;;;;24.57;33.28;95212.97;5006117;28;20499;-69
2021/04/01 08:15:40;;;;;;;14.18;12.75;;;;;;;24.79;32.99;95249.00;4992964;28;20054;-68
2021/04/01 08:18:26;;;;;;;8.35;7.10;;;;;;;24.76;33.24;95246.56;5017117;28;20038;-68
2021/04/01 08:20:58;;;;;;;9.60;8.60;;;;;;;24.72;33.42;95240.63;5010926;28;20041;-68
2021/04/01 08:23:45;;;;;;;6.97;5.18;;;;;;;24.63;33.14;95232.78;5010669;28;20026;-68
2021/04/01 08:26:36;;;;;;;6.55;5.18;;;;;;;24.65;33.25;95241.19;5011337;28;20026;-69
2021/04/01 08:32:31;;;;;;;11.60;10.60;;;;;;;24.52;33.51;95221.97;4939202;29;20039;-68
2021/04/01 08:34:59;;;;;;;10.13;9.13;;;;;;;24.53;33.69;95223.47;4996592;28;20049;-69
2021/04/01 08:37:25;;;;;;;15.60;14.15;;;;;;;24.22;33.29;95172.09;5012706;28;20569;-68
2021/04/01 08:39:50;;;;;;;19.77;18.25;;;;;;;24.48;33.45;95213.31;5013609;28;20065;-68
2021/04/01 08:42:29;;;;;;;18.08;16.63;;;;;;;24.08;33.82;95159.59;5013572;28;20430;-68
2021/04/01 08:45:17;;;;;;;29.02;26.65;;;;;;;24.42;33.50;95207.94;5013385;28;20041;-68
2021/04/01 08:47:58;;;;;;;24.30;22.38;;;;;;;24.41;33.69;95205.72;5014381;28;20030;-69
2021/04/01 08:50:47;;;;;;;21.50;19.75;;;;;;;24.32;34.03;95200.56;5014572;28;20022;-69
2021/04/01 08:53:39;;;;;;;37.85;34.45;;;;;;;24.33;33.59;95204.78;4997465;28;20049;-68
2021/04/01 08:56:22;;;;;;;35.75;32.75;;;;;;;24.35;33.90;95202.28;4983166;28;20926;-68
2021/04/01 08:58:58;;;;;;;26.33;24.13;;;;;;;24.33;33.92;95196.59;5012705;28;20030;-69
2021/04/01 09:01:27;;;;;;;29.30;26.92;;;;;;;24.32;33.71;95192.38;5013837;28;20026;-73
2021/04/01 09:03:53;;;;;;;23.48;21.75;;;;;;;24.32;33.78;95197.81;5025160;28;20059;-73
2021/04/01 09:06:19;;;;;;;22.20;20.27;;;;;;;24.07;33.74;95155.38;5026091;28;20037;-73
2021/04/01 09:08:47;;;;;;;22.63;20.80;;;;;;;24.21;33.75;95187.00;4998286;28;20037;-72
2021/04/01 09:11:13;;;;;;;27.80;25.58;;;;;;;24.02;33.85;95153.44;4997401;28;20430;-74
2021/04/01 09:13:45;;;;;;;38.08;34.80;;;;;;;24.27;34.50;95206.78;5015027;28;20083;-74
2021/04/01 09:16:28;;;;;;;46.22;42.00;;;;;;;24.18;34.60;95188.00;5026673;28;20072;-73
2021/04/01 09:19:01;;;;;;;48.67;44.08;;;;;;;23.58;34.71;95095.06;5012839;28;20033;-73
2021/04/01 09:21:31;;;;;;;53.65;48.33;;;;;;;23.97;35.32;95148.03;5009980;28;20499;-73
2021/04/01 09:23:57;;;;;;;50.28;45.38;;;;;;;23.90;34.83;95152.06;5009187;28;20029;-74
2021/04/01 09:26:24;;;;;;;72.50;62.65;;;;;;;24.21;35.84;95187.00;4992627;28;20028;-73
2021/04/01 09:28:50;;;;;;;81.53;67.70;;;;;;;24.16;35.42;95174.16;5013559;28;20055;-73
2021/04/01 09:31:15;;;;;;;62.65;55.58;;;;;;;24.20;35.23;95163.69;5024693;28;20030;-73
2021/04/01 09:33:41;;;;;;;100.22;76.38;;;;;;;24.20;35.36;95158.25;5011658;28;20052;-74
2021/04/01 09:36:21;;;;;;;139.32;95.28;;;;;;;24.20;35.67;95168.41;5009916;28;20117;-73
2021/04/01 09:38:56;;;;;;;135.65;93.35;;;;;;;24.20;35.84;95169.16;5004244;28;20180;-74
2021/04/01 09:41:32;;;;;;;168.10;107.15;;;;;;;24.08;35.82;95140.50;5007719;28;20436;-74
2021/04/01 09:44:03;;;;;;;190.77;120.47;;;;;;;24.23;35.42;95159.94;4989038;28;20492;-73
2021/04/01 09:46:29;;;;;;;29.33;20.17;;;;;;;24.26;35.42;95156.19;5009389;28;20026;-74
2021/04/01 09:49:05;;;;;;;289.25;155.05;;;;;;;24.25;35.94;95153.97;5010506;28;20032;-75
2021/04/01 09:51:31;;;;;;;188.20;114.40;;;;;;;24.33;35.52;95161.09;5009766;28;20627;-73
2021/04/01 09:53:57;;;;;;;196.25;118.38;;;;;;;24.41;35.37;95156.56;5004553;28;20047;-73
2021/04/01 09:56:27;;;;;;;271.02;149.77;;;;;;;24.48;35.77;95155.97;5007593;28;20033;-72
2021/04/01 09:58:53;;;;;;;703.03;534.25;;;;;;;24.56;35.60;95146.00;5010327;28;20057;-74
2021/04/01 10:01:27;;;;;;;687.38;524.30;;;;;;;24.63;35.74;95134.47;5008989;28;20109;-74
2021/04/01 10:04:06;;;;;;;5.57;3.90;;;;;;;24.74;35.16;95139.78;5013933;28;20116;-73
2021/04/01 10:06:41;;;;;;;6.68;3.83;;;;;;;24.82;35.42;95129.78;5007815;28;20120;-74
2021/04/01 10:09:15;;;;;;;6.82;3.70;;;;;;;24.92;35.23;95129.63;5013501;28;20044;-75
2021/04/01 10:11:45;;;;;;;6.10;3.78;;;;;;;24.69;35.09;95083.97;5009033;28;20030;-75
2021/04/01 10:14:11;;;;;;;5.65;3.40;;;;;;;25.11;34.79;95126.91;5012079;28;20498;-75
2021/04/01 10:16:55;;;;;;;6.28;3.50;;;;;;;25.22;34.98;95124.06;5007647;28;20054;-73
2021/04/01 10:19:26;;;;;;;5.75;3.67;;;;;;;25.29;34.19;95116.00;5010815;28;20029;-75
2021/04/01 10:21:52;;;;;;;6.60;3.85;;;;;;;25.38;34.42;95107.38;5006955;28;20021;-77
2021/04/01 10:24:29;;;;;;;5.68;3.85;;;;;;;25.50;34.22;95106.72;5014835;28;20414;-77
2021/04/01 10:32:06;;;;;;;8.05;3.75;;;;;;;25.78;33.92;95103.56;5018470;28;20033;-77
2021/04/01 10:34:53;;;;;;;5.93;3.63;;;;;;;25.69;33.90;95085.53;5012021;28;20506;-73
2021/04/01 10:37:20;;;;;;;4.88;3.50;;;;;;;25.91;33.67;95107.78;5009532;28;20026;-71
2021/04/01 10:39:46;;;;;;;4.32;3.38;;;;;;;25.64;33.31;95050.06;5006927;28;20037;-72
2021/04/01 10:42:12;;;;;;;6.40;3.60;;;;;;;26.04;33.39;95091.41;5006803;28;20024;-74
2021/04/01 10:44:39;;;;;;;4.95;3.30;;;;;;;26.12;33.21;95080.56;5006700;28;20555;-73
2021/04/01 10:47:05;;;;;;;6.15;3.50;;;;;;;26.18;33.20;95070.97;5015555;28;20022;-74
2021/04/01 10:49:32;;;;;;;5.53;3.47;;;;;;;26.24;33.07;95068.88;5012136;28;20491;-69
2021/04/01 10:52:24;;;;;;;5.70;3.30;;;;;;;26.28;32.92;95063.84;5012840;28;20084;-68
2021/04/01 10:54:49;;;;;;;4.97;3.53;;;;;;;26.35;32.87;95068.69;5009692;28;20579;-69
2021/04/01 10:57:31;;;;;;;5.93;3.30;;;;;;;26.41;32.70;95066.56;5009957;28;20030;-68
2021/04/01 10:59:58;;;;;;;5.22;3.55;;;;;;;26.47;32.66;95067.19;5018163;28;20037;-68
2021/04/01 11:02:24;;;;;;;4.80;3.30;;;;;;;26.50;32.63;95064.16;5012914;28;20911;-69
2021/04/01 11:04:56;;;;;;;5.07;3.13;;;;;;;26.53;32.73;95065.09;5019358;28;20474;-69
2021/04/01 11:07:21;;;;;;;4.07;3.10;;;;;;;26.53;32.51;95062.34;5013535;28;20029;-68
2021/04/01 11:09:49;;;;;;;5.57;3.20;;;;;;;26.52;32.50;95060.88;5019328;28;20033;-68
2021/04/01 11:12:19;;;;;;;4.45;3.40;;;;;;;26.40;32.48;95037.72;5020654;28;20026;-68
2021/04/01 11:14:45;;;;;;;5.38;3.47;;;;;;;26.49;32.29;95051.00;5016618;28;20504;-68
2021/04/01 11:17:14;;;;;;;4.78;3.50;;;;;;;26.44;32.42;95047.09;4991771;28;20034;-69
2021/04/01 11:19:40;;;;;;;6.28;3.40;;;;;;;26.33;32.44;95032.88;5013951;28;20037;-68
2021/04/01 11:22:05;;;;;;;5.18;3.15;;;;;;;26.39;32.43;95042.44;4998737;28;20041;-68
2021/04/01 11:24:33;;;;;;;3.88;3.08;;;;;;;25.70;31.36;94949.53;5016100;28;20038;-68
2021/04/01 11:27:11;;;;;;;4.82;3.38;;;;;;;26.23;31.64;95045.47;4997578;28;20517;-68
2021/04/01 11:29:37;;;;;;;4.57;3.00;;;;;;;26.16;32.02;95029.72;5016573;28;20025;-68
2021/04/01 11:32:20;;;;;;;4.68;3.38;;;;;;;25.90;32.03;94988.66;5010504;28;20439;-68
2021/04/01 11:34:46;;;;;;;7.40;3.03;;;;;;;26.16;32.15;95026.97;5019970;28;20061;-68
2021/04/01 11:37:12;;;;;;;4.90;3.70;;;;;;;26.11;32.40;95022.31;5011067;28;20514;-68
2021/04/01 11:39:39;;;;;;;7.57;4.40;;;;;;;25.74;32.01;94971.81;5007024;28;20032;-68
2021/04/01 11:42:08;;;;;;;5.95;3.70;;;;;;;25.74;32.47;94960.88;5009643;28;20026;-68
2021/04/01 11:44:34;;;;;;;5.53;3.50;;;;;;;25.90;32.48;95013.28;5004535;28;20014;-68
2021/04/01 11:46:59;;;;;;;5.80;3.47;;;;;;;25.93;32.12;95014.22;5011172;28;20509;-68
2021/04/01 11:49:25;;;;;;;5.90;3.40;;;;;;;25.88;32.39;95009.59;5012444;28;20026;-68
2021/04/01 11:51:50;;;;;;;4.28;3.03;;;;;;;25.84;32.38;95015.41;5014257;28;20037;-68
2021/04/01 11:54:22;;;;;;;3.90;3.00;;;;;;;25.74;32.40;94994.44;5013775;28;20531;-68
2021/04/01 11:56:48;;;;;;;5.07;3.42;;;;;;;25.76;32.67;95007.59;5003263;28;20535;-68
2021/04/01 11:59:15;;;;;;;5.15;3.10;;;;;;;25.73;32.62;95008.66;5012622;28;20045;-72
2021/04/01 12:01:55;;;;;;;4.65;2.40;;;;;;;25.60;21.96;94986.72;5014470;28;20060;-76
2021/04/01 12:04:23;;;;;;;5.85;2.42;;;;;;;25.40;21.05;94981.84;5016660;28;20032;-75
2021/04/01 12:06:48;;;;;;;3.72;2.40;;;;;;;25.29;22.86;94987.50;4995209;28;20034;-75
2021/04/01 12:09:14;;;;;;;4.47;2.85;;;;;;;24.91;23.75;94941.66;5012082;28;20018;-75
2021/04/01 12:11:44;;;;;;;4.90;2.80;;;;;;;25.16;23.03;94995.66;5012739;28;20026;-75
2021/04/01 12:14:14;;;;;;;4.95;2.70;;;;;;;24.72;26.70;94924.56;5012854;28;20029;-73
2021/04/01 12:16:39;;;;;;;5.85;3.08;;;;;;;24.80;27.39;94924.69;4981043;28;20627;-72
2021/04/01 12:19:05;;;;;;;6.80;3.13;;;;;;;25.15;27.66;94972.31;4982127;28;20026;-72
2021/04/01 12:21:31;;;;;;;4.32;2.70;;;;;;;25.05;27.77;94957.59;5008849;28;20018;-71
2021/04/01 12:24:01;;;;;;;4.45;2.65;;;;;;;25.04;28.16;94956.13;5016131;28;20422;-72
2021/04/01 12:26:30;;;;;;;5.10;2.88;;;;;;;25.11;28.20;94966.44;5010072;28;20029;-72
2021/04/01 12:29:00;;;;;;;4.93;2.90;;;;;;;25.07;28.64;94957.81;5014480;28;20033;-73
2021/04/01 12:31:35;;;;;;;4.72;2.80;;;;;;;25.08;28.58;94962.03;5007427;28;20030;-71
2021/04/01 12:34:01;;;;;;;5.55;2.75;;;;;;;25.00;28.86;94939.28;5012647;28;20075;-72
2021/04/01 12:36:33;;;;;;;6.07;2.70;;;;;;;25.05;28.59;94951.38;5009869;28;20108;-73
2021/04/01 12:38:59;;;;;;;5.13;2.72;;;;;;;25.02;28.51;94947.72;5013145;28;20562;-72
2021/04/01 12:41:30;;;;;;;5.30;3.00;;;;;;;25.02;28.76;94953.16;5007728;28;20029;-73
2021/04/01 12:43:55;;;;;;;4.07;2.72;;;;;;;24.99;28.89;94943.28;5013432;28;20022;-72
2021/04/01 12:46:22;;;;;;;4.28;2.42;;;;;;;25.00;28.69;94939.28;5008224;28;20029;-72
2021/04/01 12:48:54;;;;;;;4.55;2.75;;;;;;;25.00;29.25;94939.28;5011412;28;20030;-72
2021/04/01 12:51:21;;;;;;;3.40;2.58;;;;;;;24.99;28.88;94937.81;5024515;28;20037;-73
2021/04/01 12:54:06;;;;;;;3.20;2.40;;;;;;;24.64;28.71;94890.19;5013808;28;20034;-71
2021/04/01 12:56:46;;;;;;;4.50;2.60;;;;;;;24.98;29.01;94935.59;4999570;28;20033;-72
2021/04/01 12:59:18;;;;;;;4.20;2.55;;;;;;;24.93;29.07;94928.94;5024171;28;20045;-74
2021/04/01 13:04:13;;;;;;;4.95;2.50;;;;;;;24.95;28.44;94925.69;5012740;28;20075;-71